createdAt,value
2017-11-27T00:00:33.019Z,4.10
2017-11-27T00:03:00.583Z,4.00
2017-11-27T00:05:28.310Z,4.00
2017-11-27T00:07:55.884Z,4.00
2017-11-27T00:10:23.432Z,3.90
2017-11-27T00:12:51.021Z,3.90
2017-11-27T00:15:18.565Z,3.90
2017-11-27T00:17:46.117Z,3.90
2017-11-27T00:20:13.815Z,3.90
2017-11-27T00:22:41.357Z,3.90
2017-11-27T00:25:08.908Z,3.90
2017-11-27T00:27:37.370Z,3.90
2017-11-27T00:30:04.937Z,3.90
2017-11-27T00:32:32.488Z,3.90
2017-11-27T00:35:00.194Z,3.80
2017-11-27T00:37:27.737Z,3.80
2017-11-27T00:39:55.321Z,3.70
2017-11-27T00:42:22.913Z,3.70
2017-11-27T00:44:50.461Z,3.70
2017-11-27T00:47:18.016Z,3.70
2017-11-27T00:49:45.817Z,3.60
2017-11-27T00:52:13.369Z,3.60
2017-11-27T00:54:40.924Z,3.60
2017-11-27T00:57:08.524Z,3.60
2017-11-27T00:59:36.079Z,3.60
2017-11-27T01:02:03.629Z,3.60
2017-11-27T01:04:31.344Z,3.50
2017-11-27T01:06:58.900Z,3.50
2017-11-27T01:09:26.444Z,3.40
2017-11-27T01:11:54.028Z,3.40
2017-11-27T01:14:21.581Z,3.50
2017-11-27T01:16:49.890Z,3.40
2017-11-27T01:19:17.479Z,3.40
2017-11-27T01:21:45.021Z,3.40
2017-11-27T01:24:12.569Z,3.40
2017-11-27T01:26:41.141Z,3.40
2017-11-27T01:29:08.684Z,3.30
2017-11-27T01:31:36.260Z,3.30
2017-11-27T01:34:03.852Z,3.30
2017-11-27T01:36:31.401Z,3.20
2017-11-27T01:38:58.949Z,3.20
2017-11-27T01:41:26.631Z,3.20
2017-11-27T01:43:54.185Z,3.10
2017-11-27T01:46:21.737Z,3.10
2017-11-27T01:48:50.100Z,3.00
2017-11-27T01:51:17.653Z,3.00
2017-11-27T01:53:45.208Z,3.10
2017-11-27T01:56:13.108Z,3.10
2017-11-27T01:58:40.668Z,3.10
2017-11-27T02:01:08.221Z,3.10
2017-11-27T02:03:36.024Z,3.10
2017-11-27T02:06:03.578Z,3.10
2017-11-27T02:08:31.128Z,3.10
2017-11-27T02:10:58.848Z,3.10
2017-11-27T02:13:26.409Z,3.10
2017-11-27T02:15:53.960Z,3.10
2017-11-27T02:18:21.553Z,3.00
2017-11-27T02:20:49.109Z,3.00
2017-11-27T02:23:16.660Z,3.10
2017-11-27T02:25:44.249Z,3.10
2017-11-27T02:28:11.801Z,3.10
2017-11-27T02:30:39.358Z,3.10
2017-11-27T02:33:07.725Z,3.00
2017-11-27T02:35:35.277Z,3.00
2017-11-27T02:38:02.833Z,2.90
2017-11-27T02:40:30.436Z,2.90
2017-11-27T02:42:57.989Z,2.90
2017-11-27T02:45:25.536Z,2.90
2017-11-27T02:47:53.137Z,2.80
2017-11-27T02:50:20.693Z,2.80
2017-11-27T02:52:48.241Z,2.80
2017-11-27T02:55:15.929Z,2.90
2017-11-27T02:57:43.484Z,2.90
2017-11-27T03:00:11.036Z,2.80
2017-11-27T03:02:39.409Z,2.80
2017-11-27T03:05:06.960Z,2.80
2017-11-27T03:07:34.512Z,2.80
2017-11-27T03:10:02.117Z,2.80
2017-11-27T03:12:29.671Z,2.80
2017-11-27T03:14:57.221Z,2.80
2017-11-27T03:17:24.838Z,2.80
2017-11-27T03:19:53.166Z,2.70
2017-11-27T03:22:20.729Z,2.70
2017-11-27T03:24:48.437Z,2.80
2017-11-27T03:27:15.985Z,2.70
2017-11-27T03:29:43.545Z,2.80
2017-11-27T03:32:11.149Z,2.80
2017-11-27T03:34:38.705Z,2.80
2017-11-27T03:37:06.270Z,2.80
2017-11-27T03:39:34.073Z,2.80
2017-11-27T03:42:01.616Z,2.90
2017-11-27T03:44:29.167Z,3.00
2017-11-27T03:46:57.704Z,3.00
2017-11-27T03:49:25.253Z,3.00
2017-11-27T03:51:52.804Z,3.00
2017-11-27T03:54:21.171Z,3.10
2017-11-27T03:56:48.716Z,3.10
2017-11-27T03:59:16.260Z,3.10
2017-11-27T04:01:43.851Z,3.10
2017-11-27T04:04:11.412Z,3.10
2017-11-27T04:06:38.966Z,3.00
2017-11-27T04:09:06.586Z,3.00
2017-11-27T04:11:34.149Z,3.00
2017-11-27T04:14:02.480Z,3.00
2017-11-27T04:16:30.852Z,3.00
2017-11-27T04:18:58.404Z,3.00
2017-11-27T04:21:25.973Z,3.00
2017-11-27T04:23:53.698Z,3.00
2017-11-27T04:26:21.256Z,2.90
2017-11-27T04:28:49.572Z,3.00
2017-11-27T04:31:17.177Z,3.00
2017-11-27T04:33:44.737Z,3.00
2017-11-27T04:36:12.609Z,3.10
2017-11-27T04:38:40.403Z,3.10
2017-11-27T04:41:07.956Z,3.10
2017-11-27T04:43:36.049Z,3.10
2017-11-27T04:46:04.554Z,3.20
2017-11-27T04:48:32.189Z,3.10
2017-11-27T04:50:59.740Z,3.20
2017-11-27T04:53:28.207Z,3.30
2017-11-27T04:55:55.766Z,3.30
2017-11-27T04:58:23.664Z,3.30
2017-11-27T05:00:51.265Z,3.30
2017-11-27T05:03:18.820Z,3.30
2017-11-27T05:05:47.139Z,3.40
2017-11-27T05:08:14.892Z,3.30
2017-11-27T05:10:43.210Z,3.40
2017-11-27T05:13:10.777Z,3.30
2017-11-27T05:15:38.381Z,3.30
2017-11-27T05:18:05.937Z,3.40
2017-11-27T05:20:33.485Z,3.40
2017-11-27T05:23:01.253Z,3.40
2017-11-27T05:25:28.800Z,3.40
2017-11-27T05:27:57.116Z,3.50
2017-11-27T05:30:24.821Z,3.50
2017-11-27T05:32:52.368Z,3.50
2017-11-27T05:35:19.921Z,3.50
2017-11-27T05:37:47.651Z,3.50
2017-11-27T05:40:15.210Z,3.50
2017-11-27T05:42:42.761Z,3.60
2017-11-27T05:45:10.368Z,3.60
2017-11-27T05:47:37.918Z,3.60
2017-11-27T05:50:06.255Z,3.60
2017-11-27T05:52:34.629Z,3.70
2017-11-27T05:55:02.944Z,3.70
2017-11-27T05:57:31.835Z,3.70
2017-11-27T06:00:00.190Z,3.70
2017-11-27T06:02:27.745Z,3.70
2017-11-27T06:04:55.296Z,3.70
2017-11-27T06:07:22.896Z,3.70
2017-11-27T06:09:50.544Z,3.70
2017-11-27T06:12:18.094Z,3.70
2017-11-27T06:14:46.460Z,3.80
2017-11-27T06:17:14.016Z,3.80
2017-11-27T06:19:41.569Z,3.70
2017-11-27T06:22:09.173Z,3.80
2017-11-27T06:24:36.724Z,3.80
2017-11-27T06:27:04.333Z,3.80
2017-11-27T06:29:32.704Z,3.80
2017-11-27T06:32:01.767Z,3.90
2017-11-27T06:34:29.316Z,3.90
2017-11-27T06:36:56.918Z,3.90
2017-11-27T06:39:24.527Z,3.90
2017-11-27T06:41:52.865Z,3.90
2017-11-27T06:44:20.477Z,4.00
2017-11-27T06:46:48.028Z,3.90
2017-11-27T06:49:15.576Z,3.90
2017-11-27T06:51:43.180Z,4.00
2017-11-27T06:54:10.725Z,4.00
2017-11-27T06:56:38.273Z,4.00
2017-11-27T06:59:05.988Z,4.00
2017-11-27T07:01:33.543Z,4.00
2017-11-27T07:04:01.153Z,4.10
2017-11-27T07:06:28.761Z,4.10
2017-11-27T07:08:56.319Z,4.10
2017-11-27T07:11:24.633Z,4.10
2017-11-27T07:13:52.340Z,4.10
2017-11-27T07:16:19.885Z,4.10
2017-11-27T07:18:47.441Z,4.20
2017-11-27T07:21:15.160Z,4.20
2017-11-27T07:23:42.715Z,4.20
2017-11-27T07:26:10.277Z,4.20
2017-11-27T07:28:37.881Z,4.30
2017-11-27T07:31:05.441Z,4.30
2017-11-27T07:33:32.993Z,4.40
2017-11-27T07:36:00.794Z,4.40
2017-11-27T07:38:34.056Z,4.40
2017-11-27T07:41:01.657Z,4.40
2017-11-27T07:43:29.220Z,4.40
2017-11-27T07:45:56.804Z,4.50
2017-11-27T07:48:24.409Z,4.50
2017-11-27T07:50:51.955Z,4.60
2017-11-27T07:53:19.511Z,4.60
2017-11-27T07:55:47.108Z,4.70
2017-11-27T07:58:14.661Z,4.70
2017-11-27T08:00:42.219Z,4.70
2017-11-27T08:03:09.812Z,4.80
2017-11-27T08:05:37.373Z,4.80
2017-11-27T08:08:04.930Z,4.80
2017-11-27T08:10:32.732Z,4.80
2017-11-27T08:13:00.285Z,4.90
2017-11-27T08:15:27.836Z,5.00
2017-11-27T08:17:55.441Z,5.00
2017-11-27T08:20:23.001Z,5.00
2017-11-27T08:22:50.548Z,5.00
2017-11-27T08:25:18.245Z,5.00
2017-11-27T08:27:45.798Z,5.00
2017-11-27T08:30:13.352Z,5.00
2017-11-27T08:32:40.964Z,5.00
2017-11-27T08:35:08.511Z,5.00
2017-11-27T08:37:36.065Z,5.00
2017-11-27T08:40:04.609Z,5.00
2017-11-27T08:42:32.155Z,5.00
2017-11-27T08:44:59.700Z,5.00
2017-11-27T08:47:28.082Z,5.00
2017-11-27T08:49:56.391Z,5.10
2017-11-27T08:52:23.940Z,5.00
2017-11-27T08:54:52.499Z,5.10
2017-11-27T08:57:20.047Z,5.00
2017-11-27T08:59:47.596Z,5.00
2017-11-27T09:02:15.956Z,5.10
2017-11-27T09:04:44.286Z,5.10
2017-11-27T09:07:11.844Z,5.10
2017-11-27T09:09:40.300Z,5.20
2017-11-27T09:12:07.853Z,5.20
2017-11-27T09:14:35.404Z,5.20
2017-11-27T09:17:03.192Z,5.20
2017-11-27T09:19:30.753Z,5.30
2017-11-27T09:21:58.301Z,5.20
2017-11-27T09:24:25.908Z,5.30
2017-11-27T09:26:53.467Z,5.20
2017-11-27T09:29:21.012Z,5.20
2017-11-27T09:31:48.681Z,5.30
2017-11-27T09:34:16.241Z,5.30
2017-11-27T09:36:44.556Z,5.30
2017-11-27T09:39:12.260Z,5.30
2017-11-27T09:41:39.816Z,5.30
2017-11-27T09:44:07.377Z,5.30
2017-11-27T09:46:34.969Z,5.30
2017-11-27T09:49:02.521Z,5.30
2017-11-27T09:51:30.073Z,5.30
2017-11-27T09:53:58.517Z,5.30
2017-11-27T09:56:26.077Z,5.30
2017-11-27T09:58:53.630Z,5.30
2017-11-27T10:01:21.233Z,5.20
2017-11-27T10:03:48.784Z,5.20
2017-11-27T10:06:16.332Z,5.20
2017-11-27T10:08:44.040Z,5.20
2017-11-27T10:11:11.587Z,5.20
2017-11-27T10:13:39.140Z,5.20
2017-11-27T10:16:06.729Z,5.10
2017-11-27T10:18:34.367Z,5.00
2017-11-27T10:21:02.688Z,5.40
2017-11-27T10:23:30.504Z,5.40
2017-11-27T10:25:58.839Z,5.20
2017-11-27T10:28:26.405Z,5.20
2017-11-27T10:30:54.779Z,5.20
2017-11-27T10:33:23.096Z,5.10
2017-11-27T10:35:50.649Z,5.10
2017-11-27T10:38:18.301Z,5.10
2017-11-27T10:40:45.913Z,5.10
2017-11-27T10:43:13.481Z,5.10
2017-11-27T10:45:41.073Z,5.10
2017-11-27T10:48:08.634Z,5.10
2017-11-27T10:50:36.193Z,5.10
2017-11-27T10:53:04.013Z,5.00
2017-11-27T10:55:31.556Z,5.00
2017-11-27T10:57:59.110Z,5.00
2017-11-27T11:03:33.508Z,5.00
2017-11-27T11:06:01.106Z,5.10
2017-11-27T11:08:28.662Z,5.10
2017-11-27T11:10:56.213Z,5.10
2017-11-27T11:13:24.010Z,5.10
2017-11-27T11:15:51.563Z,5.10
2017-11-27T11:18:19.117Z,5.10
2017-11-27T11:20:46.816Z,5.10
2017-11-27T11:23:14.362Z,5.10
2017-11-27T11:25:41.916Z,5.10
2017-11-27T11:28:10.465Z,5.10
2017-11-27T11:30:38.016Z,5.10
2017-11-27T11:33:05.564Z,5.10
2017-11-27T11:35:33.164Z,5.10
2017-11-27T11:38:00.718Z,5.10
2017-11-27T11:40:28.275Z,5.10
2017-11-27T11:42:55.865Z,5.10
2017-11-27T11:45:23.410Z,5.10
2017-11-27T11:47:50.990Z,5.10
2017-11-27T11:50:19.537Z,5.00
2017-11-27T11:52:47.112Z,5.00
2017-11-27T11:55:15.328Z,5.00
2017-11-27T11:57:43.690Z,5.00
2017-11-27T12:00:12.004Z,5.00
2017-11-27T12:02:40.314Z,5.00
2017-11-27T12:05:08.012Z,5.00
2017-11-27T12:07:35.560Z,5.00
2017-11-27T12:10:03.105Z,4.90
2017-11-27T12:12:31.560Z,5.00
2017-11-27T12:14:59.112Z,4.90
2017-11-27T12:17:26.664Z,5.00
2017-11-27T12:19:54.476Z,5.00
2017-11-27T12:22:22.016Z,5.00
2017-11-27T12:24:49.564Z,4.90
2017-11-27T12:27:17.941Z,5.00
2017-11-27T12:29:45.496Z,5.00
2017-11-27T12:32:13.041Z,5.00
2017-11-27T12:34:40.632Z,5.00
2017-11-27T12:37:08.183Z,5.00
2017-11-27T12:39:35.740Z,5.00
2017-11-27T12:42:03.340Z,5.00
2017-11-27T12:44:30.901Z,5.00
2017-11-27T12:46:58.455Z,5.00
2017-11-27T12:49:26.245Z,5.10
2017-11-27T12:51:53.794Z,5.10
2017-11-27T12:54:21.336Z,5.10
2017-11-27T12:56:48.944Z,5.10
2017-11-27T12:59:16.511Z,5.10
2017-11-27T13:01:44.082Z,5.10
2017-11-27T13:04:11.677Z,5.10
2017-11-27T13:06:39.234Z,5.10
2017-11-27T13:09:06.789Z,5.10
2017-11-27T13:11:34.388Z,5.10
2017-11-27T13:14:01.944Z,5.20
2017-11-27T13:16:29.496Z,5.10
2017-11-27T13:18:57.097Z,5.20
2017-11-27T13:21:24.677Z,5.20
2017-11-27T13:23:52.317Z,5.20
2017-11-27T13:26:20.020Z,5.20
2017-11-27T13:28:47.579Z,5.20
2017-11-27T13:31:15.142Z,5.20
2017-11-27T13:33:42.752Z,5.20
2017-11-27T13:36:10.301Z,5.20
2017-11-27T13:38:37.845Z,5.20
2017-11-27T13:41:05.437Z,5.20
2017-11-27T13:43:32.988Z,5.30
2017-11-27T13:46:00.533Z,5.20
2017-11-27T13:48:28.118Z,5.30
2017-11-27T13:50:56.435Z,5.30
2017-11-27T13:53:24.773Z,5.30
2017-11-27T13:55:52.537Z,5.30
2017-11-27T13:58:20.094Z,5.30
2017-11-27T14:00:47.646Z,5.30
2017-11-27T14:03:15.247Z,5.30
2017-11-27T14:05:42.793Z,5.30
2017-11-27T14:08:10.337Z,5.30
2017-11-27T14:10:37.940Z,5.30
2017-11-27T14:13:05.484Z,5.40
2017-11-27T14:15:33.036Z,5.40
2017-11-27T14:18:01.392Z,5.50
2017-11-27T14:20:29.041Z,5.40
2017-11-27T14:22:56.584Z,5.50
2017-11-27T14:25:24.953Z,5.50
2017-11-27T14:27:52.497Z,5.50
2017-11-27T14:30:20.049Z,5.50
2017-11-27T14:32:47.639Z,5.60
2017-11-27T14:35:15.197Z,5.60
2017-11-27T14:37:42.825Z,5.60
2017-11-27T14:40:11.188Z,5.70
2017-11-27T14:42:38.735Z,5.70
2017-11-27T14:45:06.315Z,5.70
2017-11-27T14:47:33.905Z,5.70
2017-11-27T14:50:02.215Z,5.70
2017-11-27T14:52:30.536Z,5.70
2017-11-27T14:54:58.134Z,5.70
2017-11-27T14:57:25.791Z,5.70
2017-11-27T14:59:53.337Z,5.70
2017-11-27T15:02:21.037Z,5.70
2017-11-27T15:04:48.594Z,5.70
2017-11-27T15:07:16.169Z,5.70
2017-11-27T15:09:43.924Z,5.70
2017-11-27T15:12:11.485Z,5.70
2017-11-27T15:14:39.811Z,5.80
2017-11-27T15:17:07.509Z,5.80
2017-11-27T15:19:35.057Z,5.80
2017-11-27T15:22:02.621Z,5.80
2017-11-27T15:24:30.272Z,5.90
2017-11-27T15:26:57.863Z,5.90
2017-11-27T15:29:25.413Z,5.90
2017-11-27T15:31:53.784Z,5.90
2017-11-27T15:34:21.333Z,5.90
2017-11-27T15:36:48.974Z,5.90
2017-11-27T15:39:16.573Z,5.90
2017-11-27T15:41:44.325Z,5.90
2017-11-27T15:44:11.880Z,6.00
2017-11-27T15:46:39.596Z,6.00
2017-11-27T15:49:07.153Z,6.00
2017-11-27T15:51:34.715Z,6.10
2017-11-27T15:54:02.518Z,6.00
2017-11-27T15:56:30.188Z,6.00
2017-11-27T15:58:57.753Z,6.00
2017-11-27T16:01:25.353Z,6.10
2017-11-27T16:03:52.913Z,6.10
2017-11-27T16:06:20.465Z,6.10
2017-11-27T16:08:48.069Z,6.10
2017-11-27T16:11:15.625Z,6.10
2017-11-27T16:13:43.861Z,6.20
2017-11-27T16:16:11.786Z,6.20
2017-11-27T16:18:39.344Z,6.20
2017-11-27T16:21:06.899Z,6.20
2017-11-27T16:23:34.504Z,6.20
2017-11-27T16:26:02.076Z,6.20
2017-11-27T16:28:29.629Z,6.20
2017-11-27T16:30:57.237Z,6.20
2017-11-27T16:33:24.792Z,6.30
2017-11-27T16:35:52.356Z,6.30
2017-11-27T16:40:43.679Z,6.30
2017-11-27T16:43:11.258Z,6.30
2017-11-27T16:45:38.815Z,6.30
2017-11-27T16:48:06.416Z,6.30
2017-11-27T16:50:34.087Z,6.30
2017-11-27T16:53:01.636Z,6.30
2017-11-27T16:55:29.446Z,6.30
2017-11-27T16:57:57.207Z,6.40
2017-11-27T17:00:24.769Z,6.40
2017-11-27T17:02:52.398Z,6.40
2017-11-27T17:05:20.726Z,6.40
2017-11-27T17:07:48.322Z,6.40
2017-11-27T17:10:15.985Z,6.50
2017-11-27T17:12:43.545Z,6.50
2017-11-27T17:15:11.300Z,6.70
2017-11-27T17:17:38.900Z,6.80
2017-11-27T17:20:06.448Z,7.00
2017-11-27T17:22:33.997Z,7.10
2017-11-27T17:25:02.382Z,7.20
2017-11-27T17:27:30.720Z,7.20
2017-11-27T17:29:58.272Z,7.20
2017-11-27T17:32:25.880Z,7.40
2017-11-27T17:34:53.452Z,7.40
2017-11-27T17:37:21.080Z,7.40
2017-11-27T17:39:48.700Z,7.50
2017-11-27T17:42:16.276Z,7.60
2017-11-27T17:44:43.842Z,7.60
2017-11-27T17:47:11.456Z,7.60
2017-11-27T17:49:39.781Z,7.60
2017-11-27T17:52:07.339Z,7.60
2017-11-27T17:54:35.161Z,7.60
2017-11-27T17:57:02.721Z,7.60
2017-11-27T17:59:30.318Z,7.60
2017-11-27T18:01:58.792Z,7.30
2017-11-27T18:04:26.429Z,7.30
2017-11-27T18:06:54.088Z,7.10
2017-11-27T18:09:21.677Z,7.00
2017-11-27T18:11:49.221Z,6.90
2017-11-27T18:14:16.868Z,6.80
2017-11-27T18:16:44.719Z,6.80
2017-11-27T18:19:12.741Z,6.70
2017-11-27T18:21:41.731Z,6.70
2017-11-27T18:24:10.183Z,6.70
2017-11-27T18:26:38.855Z,6.70
2017-11-27T18:29:06.405Z,6.60
2017-11-27T18:31:34.913Z,6.60
2017-11-27T18:34:02.486Z,6.60
2017-11-27T18:36:30.060Z,6.70
2017-11-27T18:38:57.858Z,6.60
2017-11-27T18:41:25.432Z,6.60
2017-11-27T18:43:52.976Z,6.60
2017-11-27T18:46:21.334Z,6.60
2017-11-27T18:48:48.892Z,6.60
2017-11-27T18:51:16.432Z,6.50
2017-11-27T18:53:44.150Z,6.60
2017-11-27T18:56:12.090Z,6.60
2017-11-27T18:58:39.824Z,7.90
2017-11-27T19:01:08.215Z,6.80
2017-11-27T19:03:36.534Z,6.80
2017-11-27T19:06:04.089Z,6.80
2017-11-27T19:08:32.901Z,6.70
2017-11-27T19:11:00.460Z,6.70
2017-11-27T19:13:28.016Z,6.70
2017-11-27T19:15:56.634Z,6.70
2017-11-27T19:18:24.323Z,6.70
2017-11-27T19:20:51.913Z,6.70
2017-11-27T19:23:19.533Z,6.60
2017-11-27T19:25:48.388Z,6.60
2017-11-27T19:28:16.274Z,6.60
2017-11-27T19:30:45.071Z,6.60
2017-11-27T19:33:12.718Z,6.70
2017-11-27T19:35:40.723Z,6.60
2017-11-27T19:38:08.989Z,6.60
2017-11-27T19:40:36.726Z,6.70
2017-11-27T19:43:05.061Z,6.60
2017-11-27T19:45:32.754Z,6.60
2017-11-27T19:48:00.309Z,6.60
2017-11-27T19:50:29.665Z,6.60
2017-11-27T19:52:58.045Z,6.60
2017-11-27T19:55:25.871Z,6.60
2017-11-27T19:57:53.422Z,6.60
2017-11-27T20:00:22.015Z,6.90
2017-11-27T20:02:50.469Z,7.10
2017-11-27T20:05:18.073Z,7.10
2017-11-27T20:07:46.849Z,7.30
2017-11-27T20:10:14.536Z,7.30
2017-11-27T20:12:42.089Z,7.40
2017-11-27T20:15:09.737Z,7.40
2017-11-27T20:17:37.649Z,7.40
2017-11-27T20:20:06.725Z,7.50
2017-11-27T20:22:40.560Z,7.50
2017-11-27T20:25:08.989Z,7.60
2017-11-27T20:27:37.349Z,7.60
2017-11-27T20:30:06.160Z,7.50
2017-11-27T20:32:34.200Z,7.50
2017-11-27T20:35:01.785Z,7.50
2017-11-27T20:37:29.653Z,7.40
2017-11-27T20:39:57.206Z,7.30
2017-11-27T20:42:24.942Z,7.10
2017-11-27T20:44:52.671Z,7.10
2017-11-27T20:47:20.273Z,7.00
2017-11-27T20:49:47.820Z,6.90
2017-11-27T20:52:15.430Z,6.90
2017-11-27T20:54:42.981Z,6.90
2017-11-27T20:57:10.537Z,6.90
2017-11-27T20:59:38.136Z,6.90
2017-11-27T21:02:05.698Z,6.90
2017-11-27T21:04:33.277Z,6.90
2017-11-27T21:07:00.893Z,6.90
2017-11-27T21:09:28.444Z,6.80
2017-11-27T21:11:56.012Z,6.80
2017-11-27T21:14:23.613Z,6.80
2017-11-27T21:16:51.157Z,6.80
2017-11-27T21:19:18.703Z,6.80
2017-11-27T21:21:46.293Z,6.80
2017-11-27T21:24:13.842Z,6.80
2017-11-27T21:26:41.402Z,6.80
2017-11-27T21:29:09.177Z,6.80
2017-11-27T21:31:36.727Z,6.80
2017-11-27T21:34:04.273Z,6.80
2017-11-27T21:36:32.636Z,6.80
2017-11-27T21:39:01.688Z,6.80
2017-11-27T21:41:29.234Z,6.70
2017-11-27T21:43:57.787Z,6.80
2017-11-27T21:46:25.373Z,6.70
2017-11-27T21:48:52.925Z,6.80
2017-11-27T21:51:20.525Z,6.80
2017-11-27T21:53:48.069Z,6.80
2017-11-27T21:56:15.621Z,6.80
2017-11-27T21:58:43.233Z,6.80
2017-11-27T22:01:10.791Z,6.80
2017-11-27T22:03:38.348Z,6.80
2017-11-27T22:06:05.944Z,6.80
2017-11-27T22:08:33.488Z,6.80
2017-11-27T22:11:01.041Z,6.80
2017-11-27T22:13:28.821Z,6.80
2017-11-27T22:15:56.382Z,6.80
2017-11-27T22:18:23.932Z,6.70
2017-11-27T22:20:52.378Z,6.70
2017-11-27T22:23:19.933Z,6.60
2017-11-27T22:25:47.480Z,6.70
2017-11-27T22:28:15.582Z,6.60
2017-11-27T22:30:43.129Z,6.60
2017-11-27T22:33:11.445Z,6.50
2017-11-27T22:35:39.245Z,6.50
2017-11-27T22:38:06.799Z,6.50
2017-11-27T22:40:34.340Z,6.50
2017-11-27T22:43:01.995Z,6.50
2017-11-27T22:45:30.332Z,6.40
2017-11-27T22:47:57.876Z,6.40
2017-11-27T22:50:25.473Z,6.40
2017-11-27T22:52:53.018Z,6.30
2017-11-27T22:55:20.569Z,6.30
2017-11-27T22:57:49.123Z,6.30
2017-11-27T23:00:16.669Z,6.30
2017-11-27T23:02:44.213Z,6.30
2017-11-27T23:05:12.565Z,6.40
2017-11-27T23:07:40.109Z,6.40
2017-11-27T23:10:07.660Z,6.40
2017-11-27T23:12:35.314Z,6.40
2017-11-27T23:15:03.636Z,6.40
2017-11-27T23:17:31.189Z,6.40
2017-11-27T23:19:58.786Z,6.40
2017-11-27T23:22:26.331Z,6.40
2017-11-27T23:24:53.890Z,6.40
2017-11-27T23:27:22.257Z,6.50
2017-11-27T23:29:49.806Z,6.40
2017-11-27T23:32:17.357Z,6.40
2017-11-27T23:34:44.956Z,6.40
2017-11-27T23:37:12.497Z,6.50
2017-11-27T23:39:40.040Z,6.50
2017-11-27T23:42:08.596Z,6.50
2017-11-27T23:44:36.152Z,6.50
2017-11-27T23:47:03.701Z,6.50
2017-11-27T23:49:31.500Z,6.50
2017-11-27T23:51:59.041Z,6.50
2017-11-27T23:54:26.589Z,6.50
2017-11-27T23:56:54.944Z,6.50
2017-11-27T23:59:22.492Z,6.40
